createdAt,value
2022-10-19T00:01:20.991Z,10.80
2022-10-19T00:06:30.811Z,10.90
2022-10-19T00:09:09.050Z,10.90
2022-10-19T00:11:39.703Z,10.90
2022-10-19T00:14:07.492Z,10.90
2022-10-19T00:16:37.354Z,11.20
2022-10-19T00:19:07.505Z,11.20
2022-10-19T00:21:34.572Z,11.30
2022-10-19T00:24:01.446Z,11.20
2022-10-19T00:26:28.524Z,11.30
2022-10-19T00:28:56.266Z,11.40
2022-10-19T00:31:24.267Z,11.40
2022-10-19T00:33:51.156Z,11.40
2022-10-19T00:36:39.294Z,11.30
2022-10-19T00:39:08.723Z,11.30
2022-10-19T00:41:36.664Z,11.30
2022-10-19T00:44:12.727Z,11.40
2022-10-19T00:46:44.941Z,11.40
2022-10-19T00:49:22.173Z,11.30
2022-10-19T00:51:53.537Z,11.20
2022-10-19T00:54:20.707Z,11.20
2022-10-19T00:56:50.444Z,11.30
2022-10-19T00:59:21.643Z,11.30
2022-10-19T01:01:49.981Z,11.40
2022-10-19T01:04:17.039Z,11.40
2022-10-19T01:06:43.912Z,11.40
2022-10-19T01:09:10.794Z,11.40
2022-10-19T01:12:05.692Z,11.40
2022-10-19T01:14:48.392Z,11.40
2022-10-19T01:17:36.325Z,11.50
2022-10-19T01:20:15.438Z,11.60
2022-10-19T01:22:45.220Z,11.60
2022-10-19T01:25:48.796Z,11.60
2022-10-19T01:28:24.444Z,11.50
2022-10-19T01:31:03.686Z,11.40
2022-10-19T01:34:09.781Z,11.20
2022-10-19T01:37:00.116Z,11.20
2022-10-19T01:39:36.980Z,11.10
2022-10-19T01:42:21.496Z,11.00
2022-10-19T01:45:05.730Z,11.20
2022-10-19T01:47:38.817Z,10.80
2022-10-19T01:50:27.483Z,10.90
2022-10-19T01:52:56.557Z,10.90
2022-10-19T01:55:26.268Z,10.90
2022-10-19T01:57:59.746Z,11.00
2022-10-19T02:00:29.307Z,11.00
2022-10-19T02:02:57.805Z,11.00
2022-10-19T02:05:30.822Z,11.00
2022-10-19T02:08:04.643Z,10.90
2022-10-19T02:10:34.798Z,10.80
2022-10-19T02:13:03.347Z,10.60
2022-10-19T02:15:33.521Z,10.60
2022-10-19T02:18:02.407Z,10.40
2022-10-19T02:20:30.419Z,10.50
2022-10-19T02:22:57.257Z,10.50
2022-10-19T02:25:25.195Z,10.50
2022-10-19T02:27:52.000Z,10.10
2022-10-19T02:30:22.330Z,10.20
2022-10-19T02:32:50.360Z,10.50
2022-10-19T02:35:17.290Z,10.30
2022-10-19T02:37:44.340Z,10.50
2022-10-19T02:40:13.316Z,10.50
2022-10-19T02:42:44.357Z,10.10
2022-10-19T02:45:20.071Z,10.30
2022-10-19T02:47:56.783Z,10.50
2022-10-19T02:50:23.971Z,10.30
2022-10-19T02:52:50.984Z,10.30
2022-10-19T02:55:17.926Z,10.20
2022-10-19T02:57:44.787Z,10.30
2022-10-19T03:00:12.351Z,10.30
2022-10-19T03:02:39.113Z,10.60
2022-10-19T03:05:06.360Z,10.50
2022-10-19T03:07:33.506Z,10.50
2022-10-19T03:10:00.441Z,10.30
2022-10-19T03:12:27.179Z,10.40
2022-10-19T03:14:54.057Z,10.60
2022-10-19T03:17:20.968Z,10.50
2022-10-19T03:19:47.869Z,10.60
2022-10-19T03:22:15.323Z,10.60
2022-10-19T03:24:42.140Z,10.20
2022-10-19T03:27:09.044Z,10.20
2022-10-19T03:29:35.887Z,10.20
2022-10-19T03:32:02.663Z,10.00
2022-10-19T03:34:29.402Z,10.10
2022-10-19T03:36:56.806Z,10.20
2022-10-19T03:39:23.546Z,10.10
2022-10-19T03:41:50.327Z,10.30
2022-10-19T03:44:17.260Z,10.40
2022-10-19T03:46:44.077Z,10.50
2022-10-19T03:49:11.539Z,10.50
2022-10-19T03:51:38.303Z,10.40
2022-10-19T03:54:07.900Z,10.40
2022-10-19T03:56:35.870Z,10.60
2022-10-19T03:59:05.188Z,10.80
2022-10-19T04:01:33.233Z,10.90
2022-10-19T04:04:03.365Z,10.90
2022-10-19T04:06:35.833Z,10.90
2022-10-19T04:09:03.718Z,11.00
2022-10-19T04:11:31.295Z,11.00
2022-10-19T04:13:59.443Z,11.00
2022-10-19T04:16:28.827Z,11.00
2022-10-19T04:18:55.804Z,11.00
2022-10-19T04:21:31.209Z,11.10
2022-10-19T04:24:01.037Z,11.10
2022-10-19T04:26:28.175Z,11.20
2022-10-19T04:28:57.888Z,11.20
2022-10-19T04:31:25.506Z,11.30
2022-10-19T04:33:52.286Z,11.30
2022-10-19T04:36:19.650Z,11.30
2022-10-19T04:38:46.505Z,11.40
2022-10-19T04:41:16.061Z,11.30
2022-10-19T04:43:45.357Z,11.30
2022-10-19T04:46:19.946Z,11.20
2022-10-19T04:48:48.200Z,11.20
2022-10-19T04:51:15.921Z,11.20
2022-10-19T04:53:43.937Z,11.40
2022-10-19T04:56:22.635Z,11.40
2022-10-19T04:58:49.801Z,11.30
2022-10-19T05:01:21.490Z,11.20
2022-10-19T05:03:48.880Z,11.30
2022-10-19T05:06:16.161Z,11.40
2022-10-19T05:08:42.924Z,11.30
2022-10-19T05:11:14.813Z,11.30
2022-10-19T05:13:42.211Z,11.40
2022-10-19T05:16:14.079Z,11.40
2022-10-19T05:18:40.922Z,11.40
2022-10-19T05:21:09.194Z,11.30
2022-10-19T05:23:36.195Z,11.30
2022-10-19T05:26:15.588Z,11.40
2022-10-19T05:28:42.477Z,11.40
2022-10-19T05:31:14.266Z,11.40
2022-10-19T05:33:42.389Z,11.40
2022-10-19T05:36:28.431Z,11.40
2022-10-19T05:38:57.307Z,11.50
2022-10-19T05:41:25.490Z,11.30
2022-10-19T05:43:54.663Z,11.20
2022-10-19T05:46:21.703Z,11.30
2022-10-19T05:48:48.598Z,11.30
2022-10-19T05:51:20.888Z,11.40
2022-10-19T05:53:47.719Z,11.40
2022-10-19T05:56:19.680Z,11.50
2022-10-19T05:58:47.034Z,11.60
2022-10-19T06:01:14.399Z,11.70
2022-10-19T06:03:42.621Z,11.70
2022-10-19T06:06:09.973Z,11.70
2022-10-19T06:08:37.996Z,11.80
2022-10-19T06:11:13.847Z,11.70
2022-10-19T06:13:42.589Z,11.80
2022-10-19T06:16:12.062Z,11.80
2022-10-19T06:18:39.910Z,11.90
2022-10-19T06:21:10.389Z,11.90
2022-10-19T06:23:37.686Z,12.00
2022-10-19T06:26:07.615Z,12.00
2022-10-19T06:28:35.708Z,12.10
2022-10-19T06:31:05.870Z,12.20
2022-10-19T06:33:34.670Z,12.20
2022-10-19T06:36:20.135Z,12.30
2022-10-19T07:03:01.494Z,13.10
2022-10-19T07:05:28.255Z,13.20
2022-10-19T07:07:55.048Z,13.20
2022-10-19T07:10:21.811Z,13.30
2022-10-19T07:12:48.556Z,13.20
2022-10-19T07:15:15.448Z,13.30
2022-10-19T07:17:42.208Z,13.20
2022-10-19T07:20:10.683Z,13.30
2022-10-19T07:22:37.448Z,13.30
2022-10-19T07:25:04.539Z,13.30
2022-10-19T07:27:36.703Z,13.40
2022-10-19T07:30:04.691Z,13.50
2022-10-19T07:32:31.463Z,13.50
2022-10-19T07:34:58.223Z,13.50
2022-10-19T07:37:25.079Z,13.50
2022-10-19T07:39:51.878Z,13.40
2022-10-19T07:42:18.703Z,13.40
2022-10-19T07:44:45.491Z,13.40
2022-10-19T07:47:12.271Z,13.50
2022-10-19T07:49:39.980Z,13.60
2022-10-19T07:52:06.732Z,13.80
2022-10-19T07:54:33.518Z,13.80
2022-10-19T07:57:00.283Z,14.00
2022-10-19T07:59:27.187Z,14.00
2022-10-19T08:01:54.723Z,14.00
2022-10-19T08:07:08.339Z,14.10
2022-10-19T08:12:22.154Z,14.10
2022-10-19T08:14:49.076Z,14.20
2022-10-19T08:17:17.784Z,14.20
2022-10-19T08:19:46.321Z,14.30
2022-10-19T08:22:13.490Z,14.10
2022-10-19T08:24:40.345Z,14.20
2022-10-19T08:27:07.122Z,14.10
2022-10-19T08:29:33.915Z,14.10
2022-10-19T08:32:00.818Z,14.10
2022-10-19T08:34:27.596Z,14.10
2022-10-19T08:36:54.353Z,14.00
2022-10-19T08:39:21.075Z,14.10
2022-10-19T08:42:06.855Z,14.00
2022-10-19T08:45:00.111Z,14.10
2022-10-19T08:47:41.947Z,14.10
2022-10-19T08:50:20.486Z,14.10
2022-10-19T08:53:02.401Z,14.10
2022-10-19T08:55:52.828Z,14.10
2022-10-19T08:58:24.575Z,14.20
2022-10-19T09:00:55.561Z,14.20
2022-10-19T09:03:54.825Z,14.30
2022-10-19T09:06:34.871Z,14.40
2022-10-19T09:09:01.727Z,14.40
2022-10-19T09:11:36.839Z,14.50
2022-10-19T09:14:44.856Z,14.60
2022-10-19T09:17:15.929Z,14.50
2022-10-19T09:19:43.212Z,14.60
2022-10-19T09:22:28.855Z,14.60
2022-10-19T09:25:11.882Z,14.70
2022-10-19T09:27:41.221Z,14.70
2022-10-19T09:30:20.388Z,14.80
2022-10-19T09:32:49.968Z,14.80
2022-10-19T09:35:22.904Z,14.90
2022-10-19T09:37:50.881Z,15.00
2022-10-19T09:40:27.875Z,15.00
2022-10-19T09:42:59.224Z,15.10
2022-10-19T09:45:31.698Z,15.20
2022-10-19T09:48:08.578Z,15.20
2022-10-19T09:50:43.652Z,15.30
2022-10-19T09:53:19.556Z,15.30
2022-10-19T09:55:53.425Z,15.40
2022-10-19T09:58:20.828Z,15.60
2022-10-19T10:00:56.799Z,15.70
2022-10-19T10:03:30.911Z,15.80
2022-10-19T10:06:09.080Z,16.00
2022-10-19T10:08:50.829Z,16.30
2022-10-19T10:11:46.103Z,16.50
2022-10-19T10:14:28.292Z,16.60
2022-10-19T10:16:57.169Z,16.80
2022-10-19T10:19:29.320Z,16.90
2022-10-19T10:21:58.035Z,16.80
2022-10-19T10:24:30.011Z,17.10
2022-10-19T10:26:59.443Z,17.10
2022-10-19T10:29:37.802Z,16.90
2022-10-19T10:32:13.355Z,16.90
2022-10-19T10:34:59.926Z,17.10
2022-10-19T10:37:37.129Z,16.90
2022-10-19T10:40:05.603Z,16.80
2022-10-19T10:42:44.155Z,16.80
2022-10-19T10:45:36.871Z,16.70
2022-10-19T10:48:30.413Z,17.20
2022-10-19T10:50:59.771Z,17.40
2022-10-19T10:53:43.474Z,17.60
2022-10-19T10:56:27.011Z,17.70
2022-10-19T10:59:06.499Z,17.70
2022-10-19T11:01:48.962Z,17.70
2022-10-19T11:04:22.552Z,17.60
2022-10-19T11:06:57.116Z,17.50
2022-10-19T11:09:36.667Z,17.30
2022-10-19T11:12:09.126Z,17.40
2022-10-19T11:14:37.540Z,17.50
2022-10-19T11:17:07.783Z,17.90
2022-10-19T11:19:39.638Z,17.70
2022-10-19T11:22:26.954Z,18.20
2022-10-19T11:25:18.761Z,18.30
2022-10-19T11:28:04.230Z,18.20
2022-10-19T11:30:41.623Z,18.00
2022-10-19T11:33:28.631Z,18.50
2022-10-19T11:36:03.971Z,18.30
2022-10-19T11:38:51.698Z,18.00
2022-10-19T11:41:39.258Z,18.10
2022-10-19T11:44:12.527Z,18.30
2022-10-19T11:46:54.413Z,18.40
2022-10-19T11:49:27.286Z,18.50
2022-10-19T11:52:27.867Z,18.50
2022-10-19T11:55:28.364Z,18.60
2022-10-19T11:58:46.049Z,18.50
2022-10-19T12:01:15.644Z,18.50
2022-10-19T12:04:08.525Z,18.70
2022-10-19T12:07:03.972Z,18.70
2022-10-19T12:09:51.027Z,18.50
2022-10-19T12:12:20.687Z,18.40
2022-10-19T12:14:52.910Z,18.40
2022-10-19T12:17:26.913Z,18.30
2022-10-19T12:20:02.660Z,18.50
2022-10-19T12:22:30.930Z,18.50
2022-10-19T12:25:02.074Z,18.50
2022-10-19T12:27:39.423Z,18.30
2022-10-19T12:30:28.336Z,18.30
2022-10-19T12:33:19.944Z,18.00
2022-10-19T12:36:05.924Z,18.00
2022-10-19T12:38:49.388Z,18.00
2022-10-19T12:41:46.700Z,18.20
2022-10-19T12:44:38.020Z,18.20
2022-10-19T12:47:24.118Z,18.10
2022-10-19T12:49:51.774Z,17.90
2022-10-19T12:52:40.019Z,17.90
2022-10-19T12:55:15.886Z,18.00
2022-10-19T12:57:48.536Z,17.90
2022-10-19T13:00:26.243Z,17.80
2022-10-19T13:03:04.347Z,18.00
2022-10-19T13:05:32.889Z,18.30
2022-10-19T13:08:03.613Z,18.70
2022-10-19T13:10:31.998Z,18.70
2022-10-19T13:12:59.109Z,19.00
2022-10-19T13:15:38.176Z,18.80
2022-10-19T13:18:12.772Z,18.50
2022-10-19T13:23:07.284Z,19.00
2022-10-19T13:25:35.889Z,19.30
2022-10-19T13:28:12.866Z,19.50
2022-10-19T13:30:39.692Z,18.90
2022-10-19T13:33:27.647Z,19.00
2022-10-19T13:36:00.605Z,19.00
2022-10-19T13:38:34.096Z,19.00
2022-10-19T13:41:03.181Z,19.20
2022-10-19T13:43:34.481Z,19.20
2022-10-19T13:46:10.240Z,19.30
2022-10-19T13:48:36.991Z,19.30
2022-10-19T13:51:11.175Z,19.20
2022-10-19T13:53:46.955Z,19.00
2022-10-19T13:56:47.718Z,18.80
2022-10-19T13:59:27.999Z,18.20
2022-10-19T14:02:04.207Z,18.10
2022-10-19T14:04:51.958Z,18.10
2022-10-19T14:07:31.012Z,18.10
2022-10-19T14:10:07.960Z,18.10
2022-10-19T14:12:40.404Z,18.20
2022-10-19T14:15:34.911Z,18.10
2022-10-19T14:18:03.822Z,18.20
2022-10-19T14:20:36.078Z,18.10
2022-10-19T14:23:27.124Z,17.90
2022-10-19T14:26:20.658Z,17.90
2022-10-19T14:28:57.201Z,18.00
2022-10-19T14:31:35.381Z,18.00
2022-10-19T14:34:04.560Z,18.00
2022-10-19T14:36:36.218Z,18.10
2022-10-19T14:39:03.336Z,17.90
2022-10-19T14:44:02.830Z,18.00
2022-10-19T14:46:34.800Z,18.00
2022-10-19T14:49:04.124Z,18.10
2022-10-19T14:51:34.713Z,18.00
2022-10-19T14:54:11.348Z,17.90
2022-10-19T14:56:48.712Z,17.70
2022-10-19T14:59:30.090Z,17.70
2022-10-19T15:02:02.541Z,17.60
2022-10-19T15:04:37.097Z,17.50
2022-10-19T15:07:20.235Z,17.50
2022-10-19T15:09:54.445Z,17.40
2022-10-19T15:12:27.906Z,17.40
2022-10-19T15:14:55.072Z,17.30
2022-10-19T15:17:32.135Z,17.30
2022-10-19T15:20:27.659Z,17.20
2022-10-19T15:22:55.670Z,17.10
2022-10-19T15:25:36.965Z,17.00
2022-10-19T15:28:39.164Z,16.90
2022-10-19T15:31:25.184Z,16.80
2022-10-19T15:33:54.882Z,16.50
2022-10-19T15:36:23.798Z,16.30
2022-10-19T15:39:17.998Z,16.20
2022-10-19T15:41:51.695Z,15.90
2022-10-19T15:44:42.872Z,16.00
2022-10-19T15:47:15.909Z,16.00
2022-10-19T15:49:42.661Z,16.00
2022-10-19T15:52:24.583Z,15.80
2022-10-19T15:54:52.250Z,15.60
2022-10-19T15:57:35.732Z,15.50
2022-10-19T16:00:23.086Z,15.60
2022-10-19T16:02:49.844Z,15.50
2022-10-19T16:05:16.658Z,15.50
2022-10-19T16:07:43.452Z,15.50
2022-10-19T16:10:19.438Z,15.40
2022-10-19T16:12:46.475Z,15.40
2022-10-19T16:15:22.465Z,15.20
2022-10-19T16:17:55.427Z,15.10
2022-10-19T16:20:23.358Z,15.20
2022-10-19T16:22:50.410Z,15.20
2022-10-19T16:25:17.581Z,15.00
2022-10-19T16:27:44.511Z,14.90
2022-10-19T16:30:11.660Z,14.90
2022-10-19T16:32:39.947Z,14.70
2022-10-19T16:35:08.530Z,14.60
2022-10-19T16:37:35.519Z,14.40
2022-10-19T16:40:04.417Z,14.00
2022-10-19T16:42:31.259Z,14.00
2022-10-19T16:44:58.132Z,14.20
2022-10-19T16:47:24.880Z,14.30
2022-10-19T16:50:00.194Z,14.40
2022-10-19T16:52:28.420Z,14.30
2022-10-19T16:54:55.312Z,14.30
2022-10-19T16:57:22.169Z,14.30
2022-10-19T17:02:25.421Z,14.60
2022-10-19T17:04:52.276Z,14.60
2022-10-19T17:07:19.427Z,14.40
2022-10-19T17:09:47.849Z,14.30
2022-10-19T17:12:17.245Z,14.20
2022-10-19T17:14:44.043Z,14.30
2022-10-19T17:17:11.604Z,14.20
2022-10-19T17:19:38.602Z,14.20
2022-10-19T17:22:05.615Z,14.20
2022-10-19T17:24:32.619Z,14.20
2022-10-19T17:27:01.953Z,14.20
2022-10-19T17:29:28.847Z,14.20
2022-10-19T17:31:55.643Z,14.10
2022-10-19T17:34:22.504Z,14.10
2022-10-19T17:36:49.414Z,14.20
2022-10-19T17:39:25.715Z,14.20
2022-10-19T17:42:01.441Z,14.30
2022-10-19T17:44:30.667Z,14.20
2022-10-19T17:46:57.867Z,14.00
2022-10-19T17:49:24.747Z,13.80
2022-10-19T17:51:53.423Z,13.70
2022-10-19T17:54:20.644Z,13.70
2022-10-19T17:56:47.468Z,13.70
2022-10-19T17:59:14.252Z,13.70
2022-10-19T18:01:41.329Z,13.60
2022-10-19T18:04:08.106Z,13.20
2022-10-19T18:06:37.146Z,13.00
2022-10-19T18:09:07.128Z,13.10
2022-10-19T18:11:44.949Z,12.90
2022-10-19T18:14:13.122Z,13.00
2022-10-19T18:16:44.607Z,12.80
2022-10-19T18:19:12.860Z,12.70
2022-10-19T18:21:42.585Z,12.50
2022-10-19T18:24:15.418Z,12.50
2022-10-19T18:26:42.902Z,12.70
2022-10-19T18:29:12.910Z,12.70
2022-10-19T18:31:40.665Z,12.40
2022-10-19T18:34:12.342Z,12.30
2022-10-19T18:36:39.168Z,12.10
2022-10-19T18:39:06.232Z,11.90
2022-10-19T18:41:33.177Z,12.10
2022-10-19T18:44:03.704Z,12.10
2022-10-19T18:46:31.888Z,11.90
2022-10-19T18:49:00.435Z,11.90
2022-10-19T18:51:27.494Z,11.60
2022-10-19T18:53:55.380Z,11.50
2022-10-19T18:56:23.165Z,11.50
2022-10-19T18:58:49.965Z,11.30
2022-10-19T19:01:24.903Z,11.40
2022-10-19T19:03:54.805Z,11.60
2022-10-19T19:06:28.979Z,11.70
2022-10-19T19:08:57.415Z,11.80
2022-10-19T19:11:26.431Z,11.90
2022-10-19T19:13:58.308Z,11.80
2022-10-19T19:16:25.637Z,12.00
2022-10-19T19:18:53.721Z,12.10
2022-10-19T19:21:23.709Z,12.10
2022-10-19T19:23:51.976Z,11.90
2022-10-19T19:26:20.657Z,12.00
2022-10-19T19:28:49.265Z,12.20
2022-10-19T19:31:19.492Z,12.30
2022-10-19T19:33:47.512Z,12.30
2022-10-19T19:36:16.473Z,12.40
2022-10-19T19:38:44.395Z,12.50
2022-10-19T19:41:13.801Z,12.40
2022-10-19T19:43:42.442Z,12.10
2022-10-19T19:46:12.880Z,12.10
2022-10-19T19:48:41.507Z,12.30
2022-10-19T19:51:14.419Z,12.30
2022-10-19T19:53:41.676Z,12.40
2022-10-19T19:56:10.125Z,12.40
2022-10-19T19:58:37.419Z,12.40
2022-10-19T20:01:16.823Z,12.30
2022-10-19T20:03:45.220Z,12.40
2022-10-19T20:06:12.888Z,12.60
2022-10-19T20:08:39.987Z,12.80
2022-10-19T20:11:09.235Z,12.90
2022-10-19T20:13:36.384Z,12.90
2022-10-19T20:16:16.103Z,12.90
2022-10-19T20:18:47.878Z,12.80
2022-10-19T20:21:14.747Z,12.80
2022-10-19T20:23:45.704Z,12.70
2022-10-19T20:26:23.630Z,12.70
2022-10-19T20:28:50.912Z,12.60
2022-10-19T20:31:18.585Z,12.50
2022-10-19T20:33:47.492Z,12.50
2022-10-19T20:36:17.512Z,12.40
2022-10-19T20:38:50.192Z,12.30
2022-10-19T20:41:17.881Z,12.20
2022-10-19T20:43:45.088Z,12.10
2022-10-19T20:46:13.048Z,12.00
2022-10-19T20:48:40.593Z,12.00
2022-10-19T20:51:18.401Z,12.00
2022-10-19T20:53:46.829Z,11.90
2022-10-19T20:56:15.978Z,11.80
2022-10-19T20:58:43.910Z,11.70
2022-10-19T21:01:12.021Z,11.60
2022-10-19T21:03:39.207Z,11.50
2022-10-19T21:06:08.477Z,11.50
2022-10-19T21:08:36.597Z,11.50
2022-10-19T21:11:15.543Z,11.50
2022-10-19T21:13:43.190Z,11.40
2022-10-19T21:16:12.084Z,11.40
2022-10-19T21:18:39.705Z,11.30
2022-10-19T21:21:18.372Z,11.20
2022-10-19T21:23:48.345Z,11.10
2022-10-19T21:26:15.680Z,11.10
2022-10-19T21:28:50.502Z,11.10
2022-10-19T21:31:18.063Z,11.10
2022-10-19T21:33:45.759Z,11.10
2022-10-19T21:36:14.822Z,11.00
2022-10-19T21:38:42.501Z,11.00
2022-10-19T21:41:13.326Z,11.00
2022-10-19T21:43:40.291Z,10.90
2022-10-19T21:46:10.907Z,10.90
2022-10-19T21:48:38.265Z,10.90
2022-10-19T21:51:47.515Z,10.80
2022-10-19T21:54:19.607Z,10.70
2022-10-19T21:56:47.083Z,10.80
2022-10-19T21:59:14.383Z,10.80
2022-10-19T22:01:41.873Z,10.80
2022-10-19T22:04:17.090Z,10.70
2022-10-19T22:06:44.305Z,10.70
2022-10-19T22:09:14.455Z,10.60
2022-10-19T22:11:41.320Z,10.60
2022-10-19T22:14:09.787Z,10.60
2022-10-19T22:16:37.036Z,10.60
2022-10-19T22:19:05.448Z,10.50
2022-10-19T22:21:34.302Z,10.60
2022-10-19T22:24:05.837Z,10.60
2022-10-19T22:26:35.887Z,10.70
2022-10-19T22:29:04.958Z,10.70
2022-10-19T22:31:33.104Z,10.50
2022-10-19T22:34:01.563Z,10.60
2022-10-19T22:36:28.550Z,10.60
2022-10-19T22:38:55.636Z,10.60
2022-10-19T22:41:22.605Z,10.60
2022-10-19T22:43:49.415Z,10.70
2022-10-19T22:46:16.218Z,10.70
2022-10-19T22:48:42.998Z,10.70
2022-10-19T22:51:09.912Z,10.70
2022-10-19T22:53:36.702Z,10.60
2022-10-19T22:56:03.953Z,10.60
2022-10-19T22:58:30.774Z,10.70
2022-10-19T23:01:06.597Z,10.70
2022-10-19T23:03:34.498Z,10.80
2022-10-19T23:06:01.465Z,10.80
2022-10-19T23:08:28.318Z,10.90
2022-10-19T23:10:55.114Z,10.90
2022-10-19T23:13:22.496Z,10.90
2022-10-19T23:15:50.683Z,10.90
2022-10-19T23:18:18.056Z,10.80
2022-10-19T23:20:57.526Z,10.90
2022-10-19T23:23:25.118Z,10.80
2022-10-19T23:25:59.003Z,10.60
2022-10-19T23:28:25.984Z,10.60
2022-10-19T23:30:52.808Z,10.60
2022-10-19T23:33:19.581Z,10.70
2022-10-19T23:35:46.369Z,10.60
2022-10-19T23:38:13.201Z,10.50
2022-10-19T23:40:40.431Z,10.60
2022-10-19T23:43:07.172Z,10.70
2022-10-19T23:45:33.942Z,10.60
2022-10-19T23:48:01.250Z,10.60
2022-10-19T23:50:28.044Z,10.70
2022-10-19T23:52:54.778Z,10.80
2022-10-19T23:55:21.546Z,10.80
2022-10-19T23:57:48.377Z,10.80
